sensor_id;sensor_type;location;lat;lon;timestamp;temperature;humidity
19728;DHT22;10015;52.530;13.390;2023-04-25T00:01:18;12.10;99.90
19728;DHT22;10015;52.530;13.390;2023-04-25T00:03:44;12.10;99.90
19728;DHT22;10015;52.530;13.390;2023-04-25T00:06:12;12.20;99.90
19728;DHT22;10015;52.530;13.390;2023-04-25T00:08:38;12.20;99.90
19728;DHT22;10015;52.530;13.390;2023-04-25T00:11:04;12.30;99.90
19728;DHT22;10015;52.530;13.390;2023-04-25T00:13:30;12.30;99.90
19728;DHT22;10015;52.530;13.390;2023-04-25T00:15:56;12.30;99.90
19728;DHT22;10015;52.530;13.390;2023-04-25T00:18:22;12.30;99.90
19728;DHT22;10015;52.530;13.390;2023-04-25T00:20:48;12.30;99.90
19728;DHT22;10015;52.530;13.390;2023-04-25T00:23:16;12.30;99.90
19728;DHT22;10015;52.530;13.390;2023-04-25T00:25:47;12.20;99.90
19728;DHT22;10015;52.530;13.390;2023-04-25T00:28:13;12.20;99.90
19728;DHT22;10015;52.530;13.390;2023-04-25T00:30:40;12.20;99.90
19728;DHT22;10015;52.530;13.390;2023-04-25T00:33:07;12.30;99.90
19728;DHT22;10015;52.530;13.390;2023-04-25T00:35:33;12.20;99.90
19728;DHT22;10015;52.530;13.390;2023-04-25T00:37:59;12.20;99.90
19728;DHT22;10015;52.530;13.390;2023-04-25T00:40:25;12.30;99.90
19728;DHT22;10015;52.530;13.390;2023-04-25T00:42:54;12.30;99.90
19728;DHT22;10015;52.530;13.390;2023-04-25T00:45:21;12.30;99.90
19728;DHT22;10015;52.530;13.390;2023-04-25T00:47:46;12.30;99.90
19728;DHT22;10015;52.530;13.390;2023-04-25T00:50:15;12.40;99.90
19728;DHT22;10015;52.530;13.390;2023-04-25T00:52:44;12.40;99.90
19728;DHT22;10015;52.530;13.390;2023-04-25T00:55:12;12.40;99.90
19728;DHT22;10015;52.530;13.390;2023-04-25T00:57:38;12.40;99.90
19728;DHT22;10015;52.530;13.390;2023-04-25T01:00:05;12.40;99.90
19728;DHT22;10015;52.530;13.390;2023-04-25T01:02:33;12.40;99.90
19728;DHT22;10015;52.530;13.390;2023-04-25T01:05:01;12.30;99.90
19728;DHT22;10015;52.530;13.390;2023-04-25T01:07:27;12.40;99.90
19728;DHT22;10015;52.530;13.390;2023-04-25T01:09:53;12.30;99.90
19728;DHT22;10015;52.530;13.390;2023-04-25T01:12:19;12.20;99.90
19728;DHT22;10015;52.530;13.390;2023-04-25T01:14:46;12.20;99.90
19728;DHT22;10015;52.530;13.390;2023-04-25T01:17:12;12.10;99.90
19728;DHT22;10015;52.530;13.390;2023-04-25T01:19:38;12.10;99.90
19728;DHT22;10015;52.530;13.390;2023-04-25T01:22:05;12.00;99.90
19728;DHT22;10015;52.530;13.390;2023-04-25T01:24:32;11.90;99.90
19728;DHT22;10015;52.530;13.390;2023-04-25T01:26:59;11.90;99.90
19728;DHT22;10015;52.530;13.390;2023-04-25T01:29:27;11.90;99.90
19728;DHT22;10015;52.530;13.390;2023-04-25T01:31:54;12.00;99.90
19728;DHT22;10015;52.530;13.390;2023-04-25T01:34:20;12.00;99.90
19728;DHT22;10015;52.530;13.390;2023-04-25T01:36:49;12.00;99.90
19728;DHT22;10015;52.530;13.390;2023-04-25T01:39:15;12.00;99.90
19728;DHT22;10015;52.530;13.390;2023-04-25T01:41:42;12.00;99.90
19728;DHT22;10015;52.530;13.390;2023-04-25T01:44:08;12.10;99.90
19728;DHT22;10015;52.530;13.390;2023-04-25T01:46:34;12.00;99.90
19728;DHT22;10015;52.530;13.390;2023-04-25T01:49:01;11.90;99.90
19728;DHT22;10015;52.530;13.390;2023-04-25T01:51:27;11.90;99.90
19728;DHT22;10015;52.530;13.390;2023-04-25T01:53:54;11.90;99.90
19728;DHT22;10015;52.530;13.390;2023-04-25T01:56:20;11.90;99.90
19728;DHT22;10015;52.530;13.390;2023-04-25T01:58:46;11.90;99.90
19728;DHT22;10015;52.530;13.390;2023-04-25T02:01:31;11.90;99.90
19728;DHT22;10015;52.530;13.390;2023-04-25T02:04:11;11.80;99.90
19728;DHT22;10015;52.530;13.390;2023-04-25T02:06:39;11.90;99.90
19728;DHT22;10015;52.530;13.390;2023-04-25T02:09:06;11.90;99.90
19728;DHT22;10015;52.530;13.390;2023-04-25T02:11:32;12.00;99.90
19728;DHT22;10015;52.530;13.390;2023-04-25T02:14:16;12.00;99.90
19728;DHT22;10015;52.530;13.390;2023-04-25T02:16:56;12.00;99.90
19728;DHT22;10015;52.530;13.390;2023-04-25T02:19:22;11.90;99.90
19728;DHT22;10015;52.530;13.390;2023-04-25T02:21:48;11.90;99.90
19728;DHT22;10015;52.530;13.390;2023-04-25T02:24:14;12.00;99.90
19728;DHT22;10015;52.530;13.390;2023-04-25T02:26:40;11.90;99.90
19728;DHT22;10015;52.530;13.390;2023-04-25T02:29:09;11.80;99.90
19728;DHT22;10015;52.530;13.390;2023-04-25T02:31:35;11.70;99.90
19728;DHT22;10015;52.530;13.390;2023-04-25T02:34:01;11.80;99.90
19728;DHT22;10015;52.530;13.390;2023-04-25T02:36:27;11.80;99.90
19728;DHT22;10015;52.530;13.390;2023-04-25T02:38:55;11.80;99.90
19728;DHT22;10015;52.530;13.390;2023-04-25T02:41:21;11.80;99.90
19728;DHT22;10015;52.530;13.390;2023-04-25T02:43:47;11.70;99.90
19728;DHT22;10015;52.530;13.390;2023-04-25T02:46:13;11.70;99.90
19728;DHT22;10015;52.530;13.390;2023-04-25T02:48:39;11.70;99.90
19728;DHT22;10015;52.530;13.390;2023-04-25T02:51:05;11.60;99.90
19728;DHT22;10015;52.530;13.390;2023-04-25T02:53:31;11.60;99.90
19728;DHT22;10015;52.530;13.390;2023-04-25T02:55:57;11.60;99.90
19728;DHT22;10015;52.530;13.390;2023-04-25T02:58:24;11.70;99.90
19728;DHT22;10015;52.530;13.390;2023-04-25T03:00:52;11.70;99.90
19728;DHT22;10015;52.530;13.390;2023-04-25T03:03:18;11.60;99.90
19728;DHT22;10015;52.530;13.390;2023-04-25T03:05:49;11.60;99.90
19728;DHT22;10015;52.530;13.390;2023-04-25T03:08:19;11.60;99.90
19728;DHT22;10015;52.530;13.390;2023-04-25T03:10:45;11.60;99.90
19728;DHT22;10015;52.530;13.390;2023-04-25T03:13:13;11.70;99.90
19728;DHT22;10015;52.530;13.390;2023-04-25T03:15:41;11.80;99.90
19728;DHT22;10015;52.530;13.390;2023-04-25T03:18:07;11.60;99.90
19728;DHT22;10015;52.530;13.390;2023-04-25T03:20:33;11.70;99.90
19728;DHT22;10015;52.530;13.390;2023-04-25T03:22:59;11.60;99.90
19728;DHT22;10015;52.530;13.390;2023-04-25T03:25:26;11.70;99.90
19728;DHT22;10015;52.530;13.390;2023-04-25T03:27:52;11.70;99.90
19728;DHT22;10015;52.530;13.390;2023-04-25T03:30:18;11.80;99.90
19728;DHT22;10015;52.530;13.390;2023-04-25T03:32:45;11.80;99.90
19728;DHT22;10015;52.530;13.390;2023-04-25T03:35:15;11.70;99.90
19728;DHT22;10015;52.530;13.390;2023-04-25T03:37:41;11.80;99.90
19728;DHT22;10015;52.530;13.390;2023-04-25T03:40:11;11.60;99.90
19728;DHT22;10015;52.530;13.390;2023-04-25T03:43:10;11.70;99.90
19728;DHT22;10015;52.530;13.390;2023-04-25T03:45:40;11.70;99.90
19728;DHT22;10015;52.530;13.390;2023-04-25T03:48:06;11.70;99.90
19728;DHT22;10015;52.530;13.390;2023-04-25T03:50:32;11.60;99.90
19728;DHT22;10015;52.530;13.390;2023-04-25T03:52:58;11.60;99.90
19728;DHT22;10015;52.530;13.390;2023-04-25T03:55:27;11.60;99.90
19728;DHT22;10015;52.530;13.390;2023-04-25T03:57:53;11.60;99.90
19728;DHT22;10015;52.530;13.390;2023-04-25T04:00:18;11.70;99.90
19728;DHT22;10015;52.530;13.390;2023-04-25T04:02:44;11.70;99.90
19728;DHT22;10015;52.530;13.390;2023-04-25T04:05:10;11.80;99.90
19728;DHT22;10015;52.530;13.390;2023-04-25T04:07:42;11.70;99.90
19728;DHT22;10015;52.530;13.390;2023-04-25T04:10:10;11.70;99.90
19728;DHT22;10015;52.530;13.390;2023-04-25T04:12:38;11.70;99.90
19728;DHT22;10015;52.530;13.390;2023-04-25T04:15:05;11.70;99.90
19728;DHT22;10015;52.530;13.390;2023-04-25T04:17:33;11.70;99.90
19728;DHT22;10015;52.530;13.390;2023-04-25T04:19:59;11.60;99.90
19728;DHT22;10015;52.530;13.390;2023-04-25T04:22:28;11.70;99.90
19728;DHT22;10015;52.530;13.390;2023-04-25T04:24:57;11.60;99.90
19728;DHT22;10015;52.530;13.390;2023-04-25T04:27:43;11.70;99.90
19728;DHT22;10015;52.530;13.390;2023-04-25T04:30:26;11.70;99.90
19728;DHT22;10015;52.530;13.390;2023-04-25T04:32:58;11.60;99.90
19728;DHT22;10015;52.530;13.390;2023-04-25T04:35:24;11.60;99.90
19728;DHT22;10015;52.530;13.390;2023-04-25T04:37:50;11.60;99.90
19728;DHT22;10015;52.530;13.390;2023-04-25T04:40:18;11.70;99.90
19728;DHT22;10015;52.530;13.390;2023-04-25T04:42:51;11.60;99.90
19728;DHT22;10015;52.530;13.390;2023-04-25T04:45:48;11.60;99.90
19728;DHT22;10015;52.530;13.390;2023-04-25T04:48:34;11.50;99.90
19728;DHT22;10015;52.530;13.390;2023-04-25T04:51:20;11.50;99.90
19728;DHT22;10015;52.530;13.390;2023-04-25T04:54:02;11.40;99.90
19728;DHT22;10015;52.530;13.390;2023-04-25T04:56:48;11.30;99.90
19728;DHT22;10015;52.530;13.390;2023-04-25T04:59:20;11.30;99.90
19728;DHT22;10015;52.530;13.390;2023-04-25T05:02:05;11.40;99.90
19728;DHT22;10015;52.530;13.390;2023-04-25T05:04:50;11.50;99.90
19728;DHT22;10015;52.530;13.390;2023-04-25T05:07:26;11.40;99.90
19728;DHT22;10015;52.530;13.390;2023-04-25T05:10:20;11.40;99.90
19728;DHT22;10015;52.530;13.390;2023-04-25T05:13:12;11.50;99.90
19728;DHT22;10015;52.530;13.390;2023-04-25T05:15:56;11.50;99.90
19728;DHT22;10015;52.530;13.390;2023-04-25T05:18:47;11.40;99.90
19728;DHT22;10015;52.530;13.390;2023-04-25T05:21:32;11.40;99.90
19728;DHT22;10015;52.530;13.390;2023-04-25T05:24:16;11.60;99.90
19728;DHT22;10015;52.530;13.390;2023-04-25T05:27:02;11.60;99.90
19728;DHT22;10015;52.530;13.390;2023-04-25T05:29:57;11.60;99.90
19728;DHT22;10015;52.530;13.390;2023-04-25T05:32:32;11.90;99.90
19728;DHT22;10015;52.530;13.390;2023-04-25T05:34:58;12.00;99.90
19728;DHT22;10015;52.530;13.390;2023-04-25T05:37:40;12.00;99.90
19728;DHT22;10015;52.530;13.390;2023-04-25T05:40:10;12.20;99.90
19728;DHT22;10015;52.530;13.390;2023-04-25T05:42:45;12.30;99.90
19728;DHT22;10015;52.530;13.390;2023-04-25T05:45:17;12.40;99.90
19728;DHT22;10015;52.530;13.390;2023-04-25T05:48:07;12.50;99.90
19728;DHT22;10015;52.530;13.390;2023-04-25T05:50:52;12.50;99.90
19728;DHT22;10015;52.530;13.390;2023-04-25T05:53:34;12.50;99.90
19728;DHT22;10015;52.530;13.390;2023-04-25T05:56:01;12.30;99.90
19728;DHT22;10015;52.530;13.390;2023-04-25T05:58:28;12.30;99.90
19728;DHT22;10015;52.530;13.390;2023-04-25T06:00:55;12.50;99.90
19728;DHT22;10015;52.530;13.390;2023-04-25T06:03:22;12.40;99.90
19728;DHT22;10015;52.530;13.390;2023-04-25T06:05:51;12.40;99.90
19728;DHT22;10015;52.530;13.390;2023-04-25T06:08:17;12.30;99.90
19728;DHT22;10015;52.530;13.390;2023-04-25T06:10:43;12.40;99.90
19728;DHT22;10015;52.530;13.390;2023-04-25T06:13:08;12.40;99.90
19728;DHT22;10015;52.530;13.390;2023-04-25T06:15:36;12.40;99.90
19728;DHT22;10015;52.530;13.390;2023-04-25T06:18:02;12.20;99.90
19728;DHT22;10015;52.530;13.390;2023-04-25T06:20:28;12.10;99.90
19728;DHT22;10015;52.530;13.390;2023-04-25T06:22:57;12.10;99.90
19728;DHT22;10015;52.530;13.390;2023-04-25T06:25:32;12.10;99.90
19728;DHT22;10015;52.530;13.390;2023-04-25T06:27:59;12.20;99.90
19728;DHT22;10015;52.530;13.390;2023-04-25T06:30:25;12.20;99.90
19728;DHT22;10015;52.530;13.390;2023-04-25T06:32:55;12.20;99.90
19728;DHT22;10015;52.530;13.390;2023-04-25T06:35:22;12.30;99.90
19728;DHT22;10015;52.530;13.390;2023-04-25T06:37:48;12.20;99.90
19728;DHT22;10015;52.530;13.390;2023-04-25T06:40:14;12.20;99.90
19728;DHT22;10015;52.530;13.390;2023-04-25T06:42:40;12.10;99.90
19728;DHT22;10015;52.530;13.390;2023-04-25T06:45:29;12.10;99.90
19728;DHT22;10015;52.530;13.390;2023-04-25T06:47:55;12.00;99.90
19728;DHT22;10015;52.530;13.390;2023-04-25T06:50:21;12.00;99.90
19728;DHT22;10015;52.530;13.390;2023-04-25T06:52:47;11.80;99.90
19728;DHT22;10015;52.530;13.390;2023-04-25T06:55:13;11.60;99.90
19728;DHT22;10015;52.530;13.390;2023-04-25T06:57:57;11.60;99.90
19728;DHT22;10015;52.530;13.390;2023-04-25T07:00:46;11.50;99.90
19728;DHT22;10015;52.530;13.390;2023-04-25T07:03:13;11.40;99.90
19728;DHT22;10015;52.530;13.390;2023-04-25T07:05:39;11.50;99.90
19728;DHT22;10015;52.530;13.390;2023-04-25T07:08:05;11.60;99.90
19728;DHT22;10015;52.530;13.390;2023-04-25T07:10:31;11.40;99.90
19728;DHT22;10015;52.530;13.390;2023-04-25T07:12:57;11.30;99.90
19728;DHT22;10015;52.530;13.390;2023-04-25T07:15:23;11.30;99.90
19728;DHT22;10015;52.530;13.390;2023-04-25T07:17:49;11.40;99.90
19728;DHT22;10015;52.530;13.390;2023-04-25T07:20:15;11.20;99.90
19728;DHT22;10015;52.530;13.390;2023-04-25T07:22:41;11.20;99.90
19728;DHT22;10015;52.530;13.390;2023-04-25T07:25:08;11.30;99.90
19728;DHT22;10015;52.530;13.390;2023-04-25T07:27:34;11.30;99.90
19728;DHT22;10015;52.530;13.390;2023-04-25T07:30:06;11.30;99.90
19728;DHT22;10015;52.530;13.390;2023-04-25T07:32:33;11.30;99.90
19728;DHT22;10015;52.530;13.390;2023-04-25T07:34:58;11.50;99.90
19728;DHT22;10015;52.530;13.390;2023-04-25T07:37:25;11.60;99.90
19728;DHT22;10015;52.530;13.390;2023-04-25T07:40:03;11.60;99.90
19728;DHT22;10015;52.530;13.390;2023-04-25T07:42:30;11.40;99.90
19728;DHT22;10015;52.530;13.390;2023-04-25T07:44:56;11.30;99.90
19728;DHT22;10015;52.530;13.390;2023-04-25T07:47:22;11.30;99.90
19728;DHT22;10015;52.530;13.390;2023-04-25T07:49:49;11.30;99.90
19728;DHT22;10015;52.530;13.390;2023-04-25T07:52:15;11.30;99.90
19728;DHT22;10015;52.530;13.390;2023-04-25T07:54:47;11.20;99.90
19728;DHT22;10015;52.530;13.390;2023-04-25T07:57:18;11.20;99.90
19728;DHT22;10015;52.530;13.390;2023-04-25T07:59:46;11.00;99.90
19728;DHT22;10015;52.530;13.390;2023-04-25T08:02:12;11.10;99.90
19728;DHT22;10015;52.530;13.390;2023-04-25T08:04:39;11.20;99.90
19728;DHT22;10015;52.530;13.390;2023-04-25T08:07:08;11.20;99.90
19728;DHT22;10015;52.530;13.390;2023-04-25T08:09:48;11.30;99.90
19728;DHT22;10015;52.530;13.390;2023-04-25T08:12:22;11.20;99.90
19728;DHT22;10015;52.530;13.390;2023-04-25T08:14:48;11.30;99.90
19728;DHT22;10015;52.530;13.390;2023-04-25T08:17:15;11.20;99.90
19728;DHT22;10015;52.530;13.390;2023-04-25T08:19:41;11.10;99.90
19728;DHT22;10015;52.530;13.390;2023-04-25T08:22:14;11.10;99.90
19728;DHT22;10015;52.530;13.390;2023-04-25T08:24:50;11.10;99.90
19728;DHT22;10015;52.530;13.390;2023-04-25T08:27:18;11.10;99.90
19728;DHT22;10015;52.530;13.390;2023-04-25T08:29:44;11.30;99.90
19728;DHT22;10015;52.530;13.390;2023-04-25T08:32:10;11.60;99.90
19728;DHT22;10015;52.530;13.390;2023-04-25T08:34:41;11.80;99.90
19728;DHT22;10015;52.530;13.390;2023-04-25T08:37:09;12.10;99.90
19728;DHT22;10015;52.530;13.390;2023-04-25T08:39:44;12.30;99.90
19728;DHT22;10015;52.530;13.390;2023-04-25T08:42:31;12.30;99.90
19728;DHT22;10015;52.530;13.390;2023-04-25T08:45:01;12.30;99.90
19728;DHT22;10015;52.530;13.390;2023-04-25T08:47:33;12.20;99.90
19728;DHT22;10015;52.530;13.390;2023-04-25T08:50:02;12.10;99.90
19728;DHT22;10015;52.530;13.390;2023-04-25T08:52:35;12.00;99.90
19728;DHT22;10015;52.530;13.390;2023-04-25T08:55:02;12.30;99.90
19728;DHT22;10015;52.530;13.390;2023-04-25T08:57:29;12.80;99.90
19728;DHT22;10015;52.530;13.390;2023-04-25T08:59:57;13.20;99.90
19728;DHT22;10015;52.530;13.390;2023-04-25T09:02:24;13.40;99.90
19728;DHT22;10015;52.530;13.390;2023-04-25T09:04:51;13.80;99.90
19728;DHT22;10015;52.530;13.390;2023-04-25T09:07:20;13.90;99.90
19728;DHT22;10015;52.530;13.390;2023-04-25T09:09:47;14.20;99.90
19728;DHT22;10015;52.530;13.390;2023-04-25T09:12:18;14.40;99.90
19728;DHT22;10015;52.530;13.390;2023-04-25T09:15:08;14.80;99.90
19728;DHT22;10015;52.530;13.390;2023-04-25T09:17:56;15.30;99.90
19728;DHT22;10015;52.530;13.390;2023-04-25T09:20:23;15.90;99.90
19728;DHT22;10015;52.530;13.390;2023-04-25T09:23:04;16.00;99.90
19728;DHT22;10015;52.530;13.390;2023-04-25T09:25:38;16.10;99.90
19728;DHT22;10015;52.530;13.390;2023-04-25T09:28:10;16.20;99.90
19728;DHT22;10015;52.530;13.390;2023-04-25T09:30:36;15.90;99.90
19728;DHT22;10015;52.530;13.390;2023-04-25T09:33:12;15.80;99.90
19728;DHT22;10015;52.530;13.390;2023-04-25T09:35:44;15.80;99.90
19728;DHT22;10015;52.530;13.390;2023-04-25T09:38:23;15.60;99.90
19728;DHT22;10015;52.530;13.390;2023-04-25T09:40:59;14.90;99.90
19728;DHT22;10015;52.530;13.390;2023-04-25T09:43:45;14.60;99.90
19728;DHT22;10015;52.530;13.390;2023-04-25T09:46:13;14.50;99.90
19728;DHT22;10015;52.530;13.390;2023-04-25T09:48:51;14.20;99.90
19728;DHT22;10015;52.530;13.390;2023-04-25T09:51:27;13.90;99.90
19728;DHT22;10015;52.530;13.390;2023-04-25T09:53:54;13.80;99.90
19728;DHT22;10015;52.530;13.390;2023-04-25T09:56:26;13.70;99.90
19728;DHT22;10015;52.530;13.390;2023-04-25T09:58:55;13.80;99.90
19728;DHT22;10015;52.530;13.390;2023-04-25T10:01:23;13.50;99.90
19728;DHT22;10015;52.530;13.390;2023-04-25T10:04:04;13.50;99.90
19728;DHT22;10015;52.530;13.390;2023-04-25T10:06:43;13.20;99.90
19728;DHT22;10015;52.530;13.390;2023-04-25T10:09:11;13.10;99.90
19728;DHT22;10015;52.530;13.390;2023-04-25T10:11:38;13.20;99.90
19728;DHT22;10015;52.530;13.390;2023-04-25T10:14:05;13.20;99.90
19728;DHT22;10015;52.530;13.390;2023-04-25T10:16:32;13.40;99.90
19728;DHT22;10015;52.530;13.390;2023-04-25T10:18:59;13.30;99.90
19728;DHT22;10015;52.530;13.390;2023-04-25T10:21:28;13.40;99.90
19728;DHT22;10015;52.530;13.390;2023-04-25T10:23:54;13.50;99.90
19728;DHT22;10015;52.530;13.390;2023-04-25T10:26:21;13.40;99.90
19728;DHT22;10015;52.530;13.390;2023-04-25T10:29:21;13.50;99.90
19728;DHT22;10015;52.530;13.390;2023-04-25T10:31:48;13.40;99.90
19728;DHT22;10015;52.530;13.390;2023-04-25T10:34:16;13.10;99.90
19728;DHT22;10015;52.530;13.390;2023-04-25T10:36:42;12.90;99.90
19728;DHT22;10015;52.530;13.390;2023-04-25T10:39:08;12.90;99.90
19728;DHT22;10015;52.530;13.390;2023-04-25T10:41:55;13.00;99.90
19728;DHT22;10015;52.530;13.390;2023-04-25T10:44:21;13.00;99.90
19728;DHT22;10015;52.530;13.390;2023-04-25T10:46:48;13.20;99.90
19728;DHT22;10015;52.530;13.390;2023-04-25T10:52:25;13.00;99.90
19728;DHT22;10015;52.530;13.390;2023-04-25T10:54:53;13.00;99.90
19728;DHT22;10015;52.530;13.390;2023-04-25T10:57:46;13.00;99.90
19728;DHT22;10015;52.530;13.390;2023-04-25T11:00:16;12.90;99.90
19728;DHT22;10015;52.530;13.390;2023-04-25T11:02:57;12.90;99.90
19728;DHT22;10015;52.530;13.390;2023-04-25T11:05:31;12.90;99.90
19728;DHT22;10015;52.530;13.390;2023-04-25T11:07:58;13.00;99.90
19728;DHT22;10015;52.530;13.390;2023-04-25T11:10:26;13.10;99.90
19728;DHT22;10015;52.530;13.390;2023-04-25T11:12:53;13.20;99.90
19728;DHT22;10015;52.530;13.390;2023-04-25T11:15:19;13.10;99.90
19728;DHT22;10015;52.530;13.390;2023-04-25T11:17:45;12.90;99.90
19728;DHT22;10015;52.530;13.390;2023-04-25T11:20:13;12.70;99.90
19728;DHT22;10015;52.530;13.390;2023-04-25T11:22:40;12.50;99.90
19728;DHT22;10015;52.530;13.390;2023-04-25T11:25:10;12.30;99.90
19728;DHT22;10015;52.530;13.390;2023-04-25T11:27:58;11.90;99.90
19728;DHT22;10015;52.530;13.390;2023-04-25T11:30:26;11.80;99.90
19728;DHT22;10015;52.530;13.390;2023-04-25T11:32:52;11.80;99.90
19728;DHT22;10015;52.530;13.390;2023-04-25T11:35:19;11.90;99.90
19728;DHT22;10015;52.530;13.390;2023-04-25T11:37:46;11.90;99.90
19728;DHT22;10015;52.530;13.390;2023-04-25T11:40:13;12.10;99.90
19728;DHT22;10015;52.530;13.390;2023-04-25T11:42:43;12.20;99.90
19728;DHT22;10015;52.530;13.390;2023-04-25T11:45:09;12.30;99.90
19728;DHT22;10015;52.530;13.390;2023-04-25T11:47:36;12.50;99.90
19728;DHT22;10015;52.530;13.390;2023-04-25T11:50:04;12.70;99.90
19728;DHT22;10015;52.530;13.390;2023-04-25T11:52:43;12.80;99.90
19728;DHT22;10015;52.530;13.390;2023-04-25T11:55:13;12.90;99.90
19728;DHT22;10015;52.530;13.390;2023-04-25T11:57:40;12.80;99.90
19728;DHT22;10015;52.530;13.390;2023-04-25T12:00:41;12.80;99.90
19728;DHT22;10015;52.530;13.390;2023-04-25T12:02:59;13.00;99.90
19728;DHT22;10015;52.530;13.390;2023-04-25T12:05:28;13.10;99.90
19728;DHT22;10015;52.530;13.390;2023-04-25T12:07:55;13.20;99.90
19728;DHT22;10015;52.530;13.390;2023-04-25T12:10:23;13.00;99.90
19728;DHT22;10015;52.530;13.390;2023-04-25T12:12:50;13.00;99.90
19728;DHT22;10015;52.530;13.390;2023-04-25T12:15:18;13.00;99.90
19728;DHT22;10015;52.530;13.390;2023-04-25T12:17:46;13.00;99.90
19728;DHT22;10015;52.530;13.390;2023-04-25T12:20:15;13.00;99.90
19728;DHT22;10015;52.530;13.390;2023-04-25T12:22:44;13.00;99.90
19728;DHT22;10015;52.530;13.390;2023-04-25T12:25:33;12.90;99.90
19728;DHT22;10015;52.530;13.390;2023-04-25T12:28:23;13.00;99.90
19728;DHT22;10015;52.530;13.390;2023-04-25T12:31:06;12.80;99.90
19728;DHT22;10015;52.530;13.390;2023-04-25T12:33:37;12.80;99.90
19728;DHT22;10015;52.530;13.390;2023-04-25T12:36:04;12.90;99.90
19728;DHT22;10015;52.530;13.390;2023-04-25T12:38:40;13.00;99.90
19728;DHT22;10015;52.530;13.390;2023-04-25T12:41:07;13.00;99.90
19728;DHT22;10015;52.530;13.390;2023-04-25T12:43:34;13.00;99.90
19728;DHT22;10015;52.530;13.390;2023-04-25T12:46:01;13.10;99.90
19728;DHT22;10015;52.530;13.390;2023-04-25T12:48:27;12.90;99.90
19728;DHT22;10015;52.530;13.390;2023-04-25T12:50:53;12.90;99.90
19728;DHT22;10015;52.530;13.390;2023-04-25T12:53:21;12.70;99.90
19728;DHT22;10015;52.530;13.390;2023-04-25T12:55:48;12.60;99.90
19728;DHT22;10015;52.530;13.390;2023-04-25T12:58:18;12.50;99.90
19728;DHT22;10015;52.530;13.390;2023-04-25T13:00:46;12.60;99.90
19728;DHT22;10015;52.530;13.390;2023-04-25T13:03:12;12.80;99.90
19728;DHT22;10015;52.530;13.390;2023-04-25T13:05:39;12.70;99.30
19728;DHT22;10015;52.530;13.390;2023-04-25T13:08:05;12.80;99.60
19728;DHT22;10015;52.530;13.390;2023-04-25T13:10:32;12.70;99.50
19728;DHT22;10015;52.530;13.390;2023-04-25T13:12:59;12.90;99.60
19728;DHT22;10015;52.530;13.390;2023-04-25T13:15:27;13.00;99.90
19728;DHT22;10015;52.530;13.390;2023-04-25T13:17:53;13.10;99.40
19728;DHT22;10015;52.530;13.390;2023-04-25T13:20:19;13.30;98.60
19728;DHT22;10015;52.530;13.390;2023-04-25T13:22:48;13.40;98.80
19728;DHT22;10015;52.530;13.390;2023-04-25T13:25:14;13.60;99.10
19728;DHT22;10015;52.530;13.390;2023-04-25T13:27:41;13.80;98.50
19728;DHT22;10015;52.530;13.390;2023-04-25T13:30:10;13.70;98.50
19728;DHT22;10015;52.530;13.390;2023-04-25T13:32:37;13.60;98.80
19728;DHT22;10015;52.530;13.390;2023-04-25T13:35:05;13.70;99.00
19728;DHT22;10015;52.530;13.390;2023-04-25T13:37:32;13.70;99.30
19728;DHT22;10015;52.530;13.390;2023-04-25T13:40:03;13.60;99.90
19728;DHT22;10015;52.530;13.390;2023-04-25T13:42:31;13.60;99.80
19728;DHT22;10015;52.530;13.390;2023-04-25T13:44:58;13.30;99.90
19728;DHT22;10015;52.530;13.390;2023-04-25T13:47:26;13.20;99.90
19728;DHT22;10015;52.530;13.390;2023-04-25T13:49:52;13.30;99.90
19728;DHT22;10015;52.530;13.390;2023-04-25T13:52:19;13.20;99.90
19728;DHT22;10015;52.530;13.390;2023-04-25T13:54:45;13.00;99.90
19728;DHT22;10015;52.530;13.390;2023-04-25T13:57:12;12.80;99.90
19728;DHT22;10015;52.530;13.390;2023-04-25T13:59:39;12.80;99.90
19728;DHT22;10015;52.530;13.390;2023-04-25T14:02:06;12.80;99.90
19728;DHT22;10015;52.530;13.390;2023-04-25T14:04:33;13.10;99.90
19728;DHT22;10015;52.530;13.390;2023-04-25T14:06:59;13.30;99.90
19728;DHT22;10015;52.530;13.390;2023-04-25T14:09:25;13.30;99.90
19728;DHT22;10015;52.530;13.390;2023-04-25T14:11:53;13.20;99.90
19728;DHT22;10015;52.530;13.390;2023-04-25T14:14:20;13.00;99.90
19728;DHT22;10015;52.530;13.390;2023-04-25T14:16:47;13.00;99.90
19728;DHT22;10015;52.530;13.390;2023-04-25T14:19:17;12.90;99.90
19728;DHT22;10015;52.530;13.390;2023-04-25T14:21:44;12.80;99.90
19728;DHT22;10015;52.530;13.390;2023-04-25T14:24:10;12.80;99.90
19728;DHT22;10015;52.530;13.390;2023-04-25T14:26:37;12.70;99.90
19728;DHT22;10015;52.530;13.390;2023-04-25T14:29:06;12.50;99.90
19728;DHT22;10015;52.530;13.390;2023-04-25T14:31:35;12.50;99.70
19728;DHT22;10015;52.530;13.390;2023-04-25T14:34:02;12.50;99.90
19728;DHT22;10015;52.530;13.390;2023-04-25T14:36:28;12.50;99.90
19728;DHT22;10015;52.530;13.390;2023-04-25T14:38:56;12.30;99.90
19728;DHT22;10015;52.530;13.390;2023-04-25T14:41:23;12.30;99.90
19728;DHT22;10015;52.530;13.390;2023-04-25T14:43:50;12.20;99.90
19728;DHT22;10015;52.530;13.390;2023-04-25T14:46:16;12.40;99.90
19728;DHT22;10015;52.530;13.390;2023-04-25T14:48:43;12.40;99.90
19728;DHT22;10015;52.530;13.390;2023-04-25T14:51:09;12.40;99.90
19728;DHT22;10015;52.530;13.390;2023-04-25T14:53:35;12.40;99.90
19728;DHT22;10015;52.530;13.390;2023-04-25T14:56:02;12.40;99.90
19728;DHT22;10015;52.530;13.390;2023-04-25T14:58:28;12.50;99.90
19728;DHT22;10015;52.530;13.390;2023-04-25T15:00:54;12.50;99.90
19728;DHT22;10015;52.530;13.390;2023-04-25T15:03:20;12.50;99.90
19728;DHT22;10015;52.530;13.390;2023-04-25T15:05:47;12.50;99.90
19728;DHT22;10015;52.530;13.390;2023-04-25T15:08:13;12.30;99.90
19728;DHT22;10015;52.530;13.390;2023-04-25T15:10:39;12.10;99.90
19728;DHT22;10015;52.530;13.390;2023-04-25T15:13:05;11.90;99.90
19728;DHT22;10015;52.530;13.390;2023-04-25T15:15:31;11.90;99.90
19728;DHT22;10015;52.530;13.390;2023-04-25T15:17:57;12.00;99.90
19728;DHT22;10015;52.530;13.390;2023-04-25T15:20:24;11.90;99.90
19728;DHT22;10015;52.530;13.390;2023-04-25T15:22:51;12.00;99.90
19728;DHT22;10015;52.530;13.390;2023-04-25T15:25:18;12.00;99.90
19728;DHT22;10015;52.530;13.390;2023-04-25T15:27:44;12.10;99.90
19728;DHT22;10015;52.530;13.390;2023-04-25T15:30:13;12.30;99.90
19728;DHT22;10015;52.530;13.390;2023-04-25T15:32:44;12.30;99.90
19728;DHT22;10015;52.530;13.390;2023-04-25T15:35:12;12.10;99.90